createdAt,value
2023-03-04T00:00:34.307Z,3.75
2023-03-04T00:03:02.076Z,3.74
2023-03-04T00:05:31.753Z,3.72
2023-03-04T00:07:59.541Z,3.69
2023-03-04T00:10:27.349Z,3.63
2023-03-04T00:12:55.191Z,3.58
2023-03-04T00:15:22.974Z,3.54
2023-03-04T00:17:50.953Z,3.49
2023-03-04T00:20:18.972Z,3.44
2023-03-04T00:22:47.999Z,3.42
2023-03-04T00:25:16.107Z,3.36
2023-03-04T00:27:43.855Z,3.34
2023-03-04T00:30:12.131Z,3.32
2023-03-04T00:32:39.894Z,3.30
2023-03-04T00:35:08.240Z,3.27
2023-03-04T00:37:36.093Z,3.23
2023-03-04T00:40:04.026Z,3.20
2023-03-04T00:42:31.816Z,3.15
2023-03-04T00:44:59.541Z,3.10
2023-03-04T00:47:27.299Z,3.08
2023-03-04T00:49:55.059Z,3.02
2023-03-04T00:52:22.813Z,2.99
2023-03-04T00:54:50.560Z,2.97
2023-03-04T00:57:18.255Z,2.92
2023-03-04T00:59:47.415Z,2.86
2023-03-04T01:02:15.237Z,2.83
2023-03-04T01:04:43.126Z,2.81
2023-03-04T01:07:10.991Z,2.78
2023-03-04T01:09:38.764Z,2.74
2023-03-04T01:12:06.685Z,2.69
2023-03-04T01:14:34.498Z,2.67
2023-03-04T01:17:02.428Z,2.63
2023-03-04T01:19:30.233Z,2.61
2023-03-04T01:21:58.066Z,2.57
2023-03-04T01:24:25.903Z,2.54
2023-03-04T01:26:53.635Z,2.50
2023-03-04T01:29:21.380Z,2.45
2023-03-04T01:31:49.270Z,2.41
2023-03-04T01:34:17.104Z,2.41
2023-03-04T01:36:44.866Z,2.37
2023-03-04T01:39:12.609Z,2.34
2023-03-04T01:41:40.402Z,2.34
2023-03-04T01:44:08.130Z,2.32
2023-03-04T01:46:35.883Z,2.29
2023-03-04T01:49:03.859Z,2.27
2023-03-04T01:51:31.627Z,2.22
2023-03-04T01:53:59.479Z,2.22
2023-03-04T01:56:30.434Z,2.18
2023-03-04T01:59:13.191Z,2.14
2023-03-04T02:01:41.358Z,2.14
2023-03-04T02:04:09.384Z,2.13
2023-03-04T02:06:38.374Z,2.10
2023-03-04T02:09:06.849Z,2.06
2023-03-04T02:11:35.488Z,2.02
2023-03-04T02:14:03.263Z,2.00
2023-03-04T02:16:31.038Z,1.98
2023-03-04T02:18:58.844Z,1.99
2023-03-04T02:21:33.501Z,1.95
2023-03-04T02:24:31.730Z,1.98
2023-03-04T02:27:00.134Z,1.98
2023-03-04T02:29:27.950Z,1.97
2023-03-04T02:31:55.994Z,1.91
2023-03-04T02:34:25.325Z,1.88
2023-03-04T02:36:53.920Z,1.85
2023-03-04T02:39:21.555Z,1.86
2023-03-04T02:41:49.863Z,1.82
2023-03-04T02:44:19.757Z,1.79
2023-03-04T02:46:47.805Z,1.76
2023-03-04T02:49:15.630Z,1.78
2023-03-04T02:51:43.322Z,1.76
2023-03-04T02:54:18.611Z,1.71
2023-03-04T02:56:50.024Z,1.66
2023-03-04T02:59:17.853Z,1.68
2023-03-04T03:01:45.785Z,1.61
2023-03-04T03:04:14.146Z,1.58
2023-03-04T03:06:42.206Z,1.58
2023-03-04T03:09:10.131Z,1.53
2023-03-04T03:11:37.970Z,1.50
2023-03-04T03:14:05.883Z,1.49
2023-03-04T03:16:33.713Z,1.45
2023-03-04T03:19:01.595Z,1.44
2023-03-04T03:21:29.440Z,1.43
2023-03-04T03:23:57.329Z,1.40
2023-03-04T03:26:25.127Z,1.40
2023-03-04T03:28:52.860Z,1.36
2023-03-04T03:31:21.213Z,1.34
2023-03-04T03:33:48.991Z,1.34
2023-03-04T03:36:16.865Z,1.34
2023-03-04T03:38:44.911Z,1.34
2023-03-04T03:41:12.711Z,1.32
2023-03-04T03:43:40.449Z,1.33
2023-03-04T03:46:08.241Z,1.33
2023-03-04T03:48:36.038Z,1.31
2023-03-04T03:51:03.768Z,1.32
2023-03-04T03:53:31.593Z,1.32
2023-03-04T03:56:00.217Z,1.28
2023-03-04T03:58:28.276Z,1.24
2023-03-04T04:00:58.331Z,1.25
2023-03-04T04:03:26.488Z,1.23
2023-03-04T04:05:54.290Z,1.26
2023-03-04T04:08:22.028Z,1.24
2023-03-04T04:10:49.800Z,1.23
2023-03-04T04:13:17.560Z,1.23
2023-03-04T04:15:45.300Z,1.22
2023-03-04T04:18:13.108Z,1.20
2023-03-04T04:20:40.988Z,1.19
2023-03-04T04:23:08.780Z,1.19
2023-03-04T04:25:36.688Z,1.22
2023-03-04T04:28:04.471Z,1.19
2023-03-04T04:30:32.465Z,1.22
2023-03-04T04:33:02.910Z,1.20
2023-03-04T04:35:30.789Z,1.17
2023-03-04T04:37:58.514Z,1.16
2023-03-04T04:40:26.297Z,1.17
2023-03-04T04:42:54.113Z,1.12
2023-03-04T04:45:21.938Z,1.11
2023-03-04T04:47:49.780Z,1.11
2023-03-04T04:50:17.854Z,1.08
2023-03-04T04:52:45.677Z,1.12
2023-03-04T04:55:13.505Z,1.15
2023-03-04T04:57:41.379Z,1.19
2023-03-04T05:00:11.204Z,1.22
2023-03-04T05:02:39.206Z,1.24
2023-03-04T05:05:07.857Z,1.29
2023-03-04T05:07:35.765Z,1.33
2023-03-04T05:10:03.625Z,1.38
2023-03-04T05:12:31.341Z,1.39
2023-03-04T05:14:59.205Z,1.46
2023-03-04T05:17:27.002Z,1.51
2023-03-04T05:19:54.742Z,1.52
2023-03-04T05:22:22.495Z,1.52
2023-03-04T05:24:50.396Z,1.53
2023-03-04T05:27:18.174Z,1.55
2023-03-04T05:29:47.946Z,1.61
2023-03-04T05:32:15.879Z,1.60
2023-03-04T05:34:43.601Z,1.67
2023-03-04T05:37:11.365Z,1.71
2023-03-04T05:39:39.120Z,1.76
2023-03-04T05:42:06.922Z,1.80
2023-03-04T05:44:34.618Z,1.82
2023-03-04T05:47:02.441Z,1.87
2023-03-04T05:49:30.418Z,1.90
2023-03-04T05:51:58.140Z,1.91
2023-03-04T05:54:25.915Z,1.88
2023-03-04T05:56:53.881Z,1.90
2023-03-04T05:59:21.744Z,1.94
2023-03-04T06:01:49.549Z,1.97
2023-03-04T06:04:17.481Z,1.97
2023-03-04T06:06:47.614Z,1.98
2023-03-04T06:09:15.902Z,1.98
2023-03-04T06:11:43.749Z,2.01
2023-03-04T06:14:11.608Z,2.05
2023-03-04T06:16:39.431Z,2.06
2023-03-04T06:19:07.257Z,2.08
2023-03-04T06:21:35.089Z,2.07
2023-03-04T06:24:02.970Z,2.08
2023-03-04T06:26:30.684Z,2.12
2023-03-04T06:28:58.602Z,2.12
2023-03-04T06:31:26.419Z,2.17
2023-03-04T06:33:54.179Z,2.17
2023-03-04T06:36:22.031Z,2.16
2023-03-04T06:38:49.794Z,2.17
2023-03-04T06:41:17.798Z,2.19
2023-03-04T06:43:45.606Z,2.21
2023-03-04T06:46:13.447Z,2.22
2023-03-04T06:48:41.294Z,2.25
2023-03-04T06:51:10.180Z,2.26
2023-03-04T06:53:38.362Z,2.29
2023-03-04T06:56:06.728Z,2.33
2023-03-04T06:58:34.601Z,2.32
2023-03-04T07:01:25.050Z,2.36
2023-03-04T07:03:53.387Z,2.36
2023-03-04T07:06:22.758Z,2.41
2023-03-04T07:08:50.543Z,2.43
2023-03-04T07:11:18.458Z,2.45
2023-03-04T07:13:46.203Z,2.49
2023-03-04T07:16:16.088Z,2.51
2023-03-04T07:18:43.935Z,2.53
2023-03-04T07:21:11.854Z,2.53
2023-03-04T07:23:39.959Z,2.44
2023-03-04T07:26:07.971Z,2.48
2023-03-04T07:28:36.501Z,2.46
2023-03-04T07:31:11.643Z,2.39
2023-03-04T07:33:39.419Z,2.38
2023-03-04T07:36:07.441Z,2.85
2023-03-04T07:38:35.352Z,3.40
2023-03-04T07:41:03.340Z,3.65
2023-03-04T07:43:31.163Z,4.03
2023-03-04T07:46:02.989Z,3.99
2023-03-04T07:48:30.802Z,3.72
2023-03-04T07:51:06.513Z,3.54
2023-03-04T07:53:34.576Z,3.36
2023-03-04T07:56:02.823Z,3.23
2023-03-04T07:58:30.814Z,3.18
2023-03-04T08:00:58.802Z,3.14
2023-03-04T08:03:27.444Z,3.03
2023-03-04T08:05:55.212Z,2.92
2023-03-04T08:08:22.977Z,2.96
2023-03-04T08:10:50.767Z,2.96
2023-03-04T08:13:18.629Z,2.94
2023-03-04T08:15:46.434Z,2.94
2023-03-04T08:18:14.259Z,2.98
2023-03-04T08:20:45.195Z,3.01
2023-03-04T08:23:13.108Z,3.02
2023-03-04T08:25:41.780Z,3.02
2023-03-04T08:28:09.951Z,3.01
2023-03-04T08:30:38.026Z,3.01
2023-03-04T08:33:05.904Z,3.01
2023-03-04T08:35:34.043Z,3.00
2023-03-04T08:38:02.598Z,3.03
2023-03-04T08:40:32.153Z,3.02
2023-03-04T08:43:00.098Z,3.05
2023-03-04T08:45:27.959Z,3.09
2023-03-04T08:47:55.819Z,3.12
2023-03-04T08:50:23.775Z,3.17
2023-03-04T08:52:51.475Z,3.21
2023-03-04T08:55:19.417Z,3.25
2023-03-04T08:57:47.394Z,3.23
2023-03-04T09:00:16.076Z,3.28
2023-03-04T09:02:44.019Z,3.33
2023-03-04T09:05:11.852Z,3.34
2023-03-04T09:07:39.773Z,3.45
2023-03-04T09:10:08.065Z,3.48
2023-03-04T09:12:35.938Z,3.53
2023-03-04T09:15:11.215Z,3.54
2023-03-04T09:17:40.825Z,3.60
2023-03-04T09:20:11.523Z,3.62
2023-03-04T09:22:40.029Z,3.64
2023-03-04T09:25:12.182Z,3.73
2023-03-04T09:27:40.872Z,3.91
2023-03-04T09:30:09.853Z,4.05
2023-03-04T09:32:37.929Z,4.22
2023-03-04T09:35:06.227Z,4.34
2023-03-04T09:37:34.094Z,4.48
2023-03-04T09:40:02.141Z,4.68
2023-03-04T09:42:36.803Z,4.87
2023-03-04T09:45:08.544Z,5.11
2023-03-04T09:47:36.917Z,5.21
2023-03-04T09:50:08.678Z,5.22
2023-03-04T09:53:09.356Z,5.26
2023-03-04T09:55:40.518Z,5.21
2023-03-04T09:58:15.189Z,5.30
2023-03-04T10:00:45.149Z,5.29
2023-03-04T10:03:20.492Z,5.33
2023-03-04T10:06:07.695Z,5.41
2023-03-04T10:09:11.745Z,5.48
2023-03-04T10:11:46.517Z,5.68
2023-03-04T10:14:23.563Z,5.99
2023-03-04T10:17:01.660Z,6.22
2023-03-04T10:19:42.744Z,6.38
2023-03-04T10:22:18.404Z,6.39
2023-03-04T10:24:48.389Z,6.35
2023-03-04T10:27:18.148Z,6.39
2023-03-04T10:29:48.651Z,6.31
2023-03-04T10:32:19.004Z,6.42
2023-03-04T10:34:46.916Z,6.51
2023-03-04T10:37:14.704Z,6.74
2023-03-04T10:39:44.052Z,6.94
2023-03-04T10:42:17.685Z,7.08
2023-03-04T10:44:57.035Z,7.04
2023-03-04T10:47:26.473Z,7.01
2023-03-04T10:49:59.218Z,6.99
2023-03-04T10:52:48.947Z,7.11
2023-03-04T10:55:42.674Z,7.17
2023-03-04T10:58:14.404Z,7.31
2023-03-04T11:00:42.305Z,7.52
2023-03-04T11:03:29.783Z,7.47
2023-03-04T11:06:23.314Z,7.60
2023-03-04T11:08:58.323Z,7.79
2023-03-04T11:11:35.605Z,7.97
2023-03-04T11:14:51.436Z,8.17
2023-03-04T11:17:21.863Z,8.20
2023-03-04T11:20:11.849Z,8.48
2023-03-04T11:22:39.619Z,8.50
2023-03-04T11:25:09.278Z,8.57
2023-03-04T11:27:43.935Z,8.83
2023-03-04T11:30:39.834Z,9.00
2023-03-04T11:33:15.888Z,9.27
2023-03-04T11:36:00.847Z,9.41
2023-03-04T11:38:34.756Z,9.48
2023-03-04T11:41:06.218Z,9.60
2023-03-04T11:43:37.193Z,9.57
2023-03-04T11:46:27.295Z,9.61
2023-03-04T11:49:03.184Z,9.60
2023-03-04T11:51:36.417Z,9.39
2023-03-04T11:54:29.029Z,9.42
2023-03-04T11:57:35.292Z,9.43
2023-03-04T12:00:18.428Z,9.52
2023-03-04T12:03:24.299Z,9.76
2023-03-04T12:06:00.996Z,9.84
2023-03-04T12:08:39.566Z,9.84
2023-03-04T12:11:08.174Z,9.59
2023-03-04T12:13:48.348Z,9.73
2023-03-04T12:16:35.084Z,9.77
2023-03-04T12:19:21.856Z,9.70
2023-03-04T12:22:11.851Z,9.69
2023-03-04T12:25:27.793Z,9.77
2023-03-04T12:28:35.721Z,9.74
2023-03-04T12:31:24.571Z,9.83
2023-03-04T12:34:14.895Z,9.81
2023-03-04T12:36:55.050Z,9.79
2023-03-04T12:39:36.671Z,10.06
2023-03-04T12:42:19.554Z,10.26
2023-03-04T12:44:49.662Z,10.29
2023-03-04T12:47:24.060Z,10.38
2023-03-04T12:50:19.128Z,10.50
2023-03-04T12:52:59.891Z,10.55
2023-03-04T12:55:36.594Z,10.76
2023-03-04T12:58:04.491Z,10.84
2023-03-04T13:01:10.039Z,10.95
2023-03-04T13:03:45.880Z,10.98
2023-03-04T13:06:33.394Z,11.12
2023-03-04T13:09:10.018Z,11.06
2023-03-04T13:11:49.904Z,11.18
2023-03-04T13:14:19.322Z,11.35
2023-03-04T13:16:49.437Z,11.16
2023-03-04T13:19:46.264Z,11.04
2023-03-04T13:22:42.310Z,11.12
2023-03-04T13:25:35.020Z,11.07
2023-03-04T13:28:14.672Z,10.99
2023-03-04T13:30:43.246Z,11.08
2023-03-04T13:33:14.676Z,11.11
2023-03-04T13:35:48.508Z,11.27
2023-03-04T13:38:28.496Z,11.21
2023-03-04T13:41:21.245Z,11.38
2023-03-04T13:43:59.619Z,11.33
2023-03-04T13:46:28.650Z,11.53
2023-03-04T13:48:56.526Z,11.59
2023-03-04T13:51:34.050Z,11.59
2023-03-04T13:54:02.048Z,11.47
2023-03-04T13:56:42.930Z,11.43
2023-03-04T13:59:10.635Z,11.69
2023-03-04T14:01:44.170Z,11.59
2023-03-04T14:04:17.571Z,11.36
2023-03-04T14:06:46.551Z,11.26
2023-03-04T14:09:16.211Z,11.13
2023-03-04T14:11:44.088Z,11.01
2023-03-04T14:14:17.544Z,10.90
2023-03-04T14:16:56.850Z,10.89
2023-03-04T14:19:29.923Z,10.80
2023-03-04T14:21:58.076Z,10.90
2023-03-04T14:24:26.026Z,10.82
2023-03-04T14:27:12.877Z,10.84
2023-03-04T14:29:40.730Z,10.76
2023-03-04T14:32:09.008Z,10.74
2023-03-04T14:34:38.515Z,10.62
2023-03-04T14:37:21.431Z,10.51
2023-03-04T14:39:50.580Z,10.37
2023-03-04T14:42:18.558Z,10.11
2023-03-04T14:44:49.101Z,10.04
2023-03-04T14:47:25.397Z,9.94
2023-03-04T14:49:53.255Z,9.90
2023-03-04T14:52:36.579Z,9.86
2023-03-04T14:55:28.050Z,9.72
2023-03-04T14:58:06.933Z,9.75
2023-03-04T15:00:36.363Z,9.66
2023-03-04T15:03:23.949Z,9.71
2023-03-04T15:05:54.001Z,9.60
2023-03-04T15:08:31.997Z,9.61
2023-03-04T15:11:01.283Z,9.53
2023-03-04T15:13:46.349Z,9.55
2023-03-04T15:16:15.527Z,9.51
2023-03-04T15:19:25.821Z,9.41
2023-03-04T15:21:53.674Z,9.35
2023-03-04T15:24:21.724Z,9.23
2023-03-04T15:26:51.774Z,9.17
2023-03-04T15:29:20.676Z,9.17
2023-03-04T15:31:51.885Z,9.11
2023-03-04T15:34:21.213Z,9.06
2023-03-04T15:36:50.673Z,8.96
2023-03-04T15:39:19.056Z,8.89
2023-03-04T15:41:49.609Z,8.84
2023-03-04T15:44:17.492Z,8.71
2023-03-04T15:46:45.302Z,8.71
2023-03-04T15:49:13.194Z,8.52
2023-03-04T15:51:41.031Z,8.50
2023-03-04T15:54:10.775Z,8.43
2023-03-04T15:56:38.800Z,8.35
2023-03-04T15:59:15.932Z,8.26
2023-03-04T16:01:44.187Z,8.24
2023-03-04T16:04:17.924Z,8.16
2023-03-04T16:06:46.578Z,8.03
2023-03-04T16:09:15.740Z,8.00
2023-03-04T16:11:46.712Z,7.94
2023-03-04T16:14:15.755Z,7.86
2023-03-04T16:16:45.234Z,7.80
2023-03-04T16:19:13.046Z,7.69
2023-03-04T16:21:40.780Z,7.67
2023-03-04T16:24:16.827Z,7.65
2023-03-04T16:26:44.682Z,7.62
2023-03-04T16:29:12.741Z,7.61
2023-03-04T16:31:40.700Z,7.56
2023-03-04T16:34:08.667Z,7.51
2023-03-04T16:36:36.580Z,7.49
2023-03-04T16:39:05.917Z,7.43
2023-03-04T16:41:33.688Z,7.41
2023-03-04T16:44:02.133Z,7.36
2023-03-04T16:46:31.109Z,7.33
2023-03-04T16:48:58.939Z,7.32
2023-03-04T16:51:26.695Z,7.28
2023-03-04T16:53:58.512Z,7.26
2023-03-04T16:56:26.329Z,7.24
2023-03-04T16:58:55.452Z,7.21
2023-03-04T17:01:25.113Z,7.16
2023-03-04T17:03:53.351Z,7.12
2023-03-04T17:06:22.090Z,7.11
2023-03-04T17:08:49.973Z,7.09
2023-03-04T17:11:19.450Z,7.09
2023-03-04T17:13:47.273Z,7.07
2023-03-04T17:16:16.421Z,7.05
2023-03-04T17:18:45.412Z,7.01
2023-03-04T17:21:18.030Z,7.00
2023-03-04T17:23:45.881Z,6.99
2023-03-04T17:26:14.409Z,6.96
2023-03-04T17:28:42.501Z,6.95
2023-03-04T17:31:13.551Z,6.93
2023-03-04T17:33:41.343Z,6.91
2023-03-04T17:36:11.826Z,6.91
2023-03-04T17:38:39.877Z,6.89
2023-03-04T17:41:09.340Z,6.85
2023-03-04T17:43:37.166Z,6.83
2023-03-04T17:46:09.728Z,6.81
2023-03-04T17:48:37.608Z,6.79
2023-03-04T17:51:06.861Z,6.80
2023-03-04T17:53:34.785Z,6.74
2023-03-04T17:56:03.825Z,6.72
2023-03-04T17:58:33.226Z,6.71
2023-03-04T18:01:12.600Z,6.72
2023-03-04T18:03:45.207Z,6.74
2023-03-04T18:06:13.202Z,6.78
2023-03-04T18:08:41.105Z,6.79
2023-03-04T18:11:08.916Z,6.81
2023-03-04T18:13:41.999Z,6.82
2023-03-04T18:16:15.275Z,6.83
2023-03-04T18:18:43.912Z,6.86
2023-03-04T18:21:11.825Z,6.86
2023-03-04T18:23:39.594Z,6.87
2023-03-04T18:26:07.577Z,6.88
2023-03-04T18:28:35.363Z,6.86
2023-03-04T18:31:03.258Z,6.85
2023-03-04T18:33:31.490Z,6.90
2023-03-04T18:36:03.651Z,6.93
2023-03-04T18:38:32.463Z,6.93
2023-03-04T18:41:01.379Z,6.88
2023-03-04T18:43:29.176Z,6.86
2023-03-04T18:46:18.225Z,6.82
2023-03-04T18:48:50.845Z,6.75
2023-03-04T18:51:18.632Z,6.66
2023-03-04T18:53:46.659Z,6.62
2023-03-04T18:56:16.971Z,6.53
2023-03-04T18:58:45.486Z,6.44
2023-03-04T19:01:13.387Z,6.34
2023-03-04T19:03:41.228Z,6.26
2023-03-04T19:06:09.263Z,6.18
2023-03-04T19:08:37.055Z,6.13
2023-03-04T19:11:07.010Z,6.03
2023-03-04T19:13:34.920Z,5.92
2023-03-04T19:16:02.722Z,5.79
2023-03-04T19:18:30.644Z,5.67
2023-03-04T19:21:01.712Z,5.56
2023-03-04T19:23:30.810Z,5.45
2023-03-04T19:25:58.672Z,5.34
2023-03-04T19:28:26.379Z,5.22
2023-03-04T19:30:55.032Z,5.14
2023-03-04T19:33:22.837Z,5.02
2023-03-04T19:35:50.806Z,4.97
2023-03-04T19:38:18.623Z,4.90
2023-03-04T19:40:47.959Z,4.83
2023-03-04T19:43:15.887Z,4.79
2023-03-04T19:45:43.889Z,4.73
2023-03-04T19:48:11.889Z,4.72
2023-03-04T19:50:39.865Z,4.70
2023-03-04T19:53:07.917Z,4.67
2023-03-04T19:55:38.786Z,4.64
2023-03-04T19:58:06.662Z,4.60
2023-03-04T20:00:34.576Z,4.58
2023-03-04T20:03:03.120Z,4.54
2023-03-04T20:05:31.113Z,4.51
2023-03-04T20:07:58.946Z,4.46
2023-03-04T20:10:26.753Z,4.44
2023-03-04T20:12:55.705Z,4.39
2023-03-04T20:15:23.566Z,4.32
2023-03-04T20:17:51.446Z,4.32
2023-03-04T20:20:19.435Z,4.21
2023-03-04T20:22:47.316Z,4.13
2023-03-04T20:25:15.124Z,4.06
2023-03-04T20:27:43.658Z,4.00
2023-03-04T20:30:12.284Z,3.96
2023-03-04T20:32:40.274Z,3.96
2023-03-04T20:35:08.758Z,3.96
2023-03-04T20:37:37.200Z,3.92
2023-03-04T20:40:05.239Z,3.92
2023-03-04T20:42:33.369Z,3.89
2023-03-04T20:45:01.240Z,3.88
2023-03-04T20:47:28.967Z,3.88
2023-03-04T20:49:56.739Z,3.86
2023-03-04T20:52:24.614Z,3.87
2023-03-04T20:54:52.397Z,3.81
2023-03-04T20:57:20.243Z,3.75
2023-03-04T20:59:48.025Z,3.75
2023-03-04T21:02:17.190Z,3.74
2023-03-04T21:04:45.128Z,3.79
2023-03-04T21:07:13.006Z,3.79
2023-03-04T21:09:40.911Z,3.76
2023-03-04T21:12:09.127Z,3.79
2023-03-04T21:14:37.048Z,3.79
2023-03-04T21:17:05.530Z,3.78
2023-03-04T21:19:35.157Z,3.75
2023-03-04T21:22:03.215Z,3.77
2023-03-04T21:24:32.454Z,3.77
2023-03-04T21:27:00.308Z,3.77
2023-03-04T21:29:29.260Z,3.75
2023-03-04T21:32:16.755Z,3.72
2023-03-04T21:34:50.540Z,3.67
2023-03-04T21:37:18.897Z,3.68
2023-03-04T21:39:46.874Z,3.67
2023-03-04T21:42:14.833Z,3.64
2023-03-04T21:44:49.679Z,3.61
2023-03-04T21:47:18.384Z,3.58
2023-03-04T21:49:46.325Z,3.58
2023-03-04T21:52:14.360Z,3.59
2023-03-04T21:54:42.154Z,3.58
2023-03-04T21:57:10.064Z,3.57
2023-03-04T21:59:38.757Z,3.55
2023-03-04T22:02:06.780Z,3.58
2023-03-04T22:04:34.802Z,3.57
2023-03-04T22:07:03.010Z,3.54
2023-03-04T22:09:30.852Z,3.53
2023-03-04T22:11:58.624Z,3.51
2023-03-04T22:14:28.813Z,3.49
2023-03-04T22:16:57.632Z,3.51
2023-03-04T22:19:26.230Z,3.51
2023-03-04T22:21:54.213Z,3.50
2023-03-04T22:24:22.098Z,3.52
2023-03-04T22:26:49.978Z,3.51
2023-03-04T22:29:17.832Z,3.51
2023-03-04T22:31:46.156Z,3.50
2023-03-04T22:34:15.026Z,3.50
2023-03-04T22:36:44.476Z,3.48
2023-03-04T22:39:14.402Z,3.50
2023-03-04T22:41:42.422Z,3.53
2023-03-04T22:44:10.236Z,3.52
2023-03-04T22:46:39.467Z,3.53
2023-03-04T22:49:10.776Z,3.48
2023-03-04T22:51:39.193Z,3.47
2023-03-04T22:54:07.011Z,3.49
2023-03-04T22:56:34.953Z,3.47
2023-03-04T22:59:02.767Z,3.43
2023-03-04T23:01:30.722Z,3.44
2023-03-04T23:03:58.543Z,3.45
2023-03-04T23:06:28.778Z,3.42
2023-03-04T23:08:56.909Z,3.42
2023-03-04T23:11:27.595Z,3.39
2023-03-04T23:13:55.555Z,3.43
2023-03-04T23:16:24.035Z,3.42
2023-03-04T23:18:52.286Z,3.42
2023-03-04T23:21:21.943Z,3.44
2023-03-04T23:23:49.865Z,3.39
2023-03-04T23:26:19.785Z,3.43
2023-03-04T23:28:47.652Z,3.38
2023-03-04T23:31:18.443Z,3.41
2023-03-04T23:33:47.728Z,3.37
2023-03-04T23:36:18.048Z,3.36
2023-03-04T23:38:46.724Z,3.37
2023-03-04T23:41:18.624Z,3.33
2023-03-04T23:43:46.773Z,3.36
2023-03-04T23:46:15.016Z,3.33
2023-03-04T23:48:44.372Z,3.28
2023-03-04T23:51:12.403Z,3.24
2023-03-04T23:53:40.251Z,3.24
2023-03-04T23:56:11.968Z,3.21
2023-03-04T23:58:39.794Z,3.24
